Time;durP1;ratioP1;P1;durP2;ratioP2;P2;SDS_P1;SDS_P2;PMS_P1;PMS_P2;Temp;Humidity;BMP_temperature;BMP_pressure;BME280_temperature;BME280_humidity;BME280_pressure;Samples;Min_cycle;Max_cycle;Signal;HPM_P1;HPM_P2
2023/07/16 00:02:11;;;;;;;;;31.50;28.50;;;;;24.14;53.06;100385.37;110204;1250;20046;-73
2023/07/16 00:04:37;;;;;;;;;28.00;26.00;;;;;24.20;52.88;100379.49;110238;1249;20181;-73
2023/07/16 00:07:03;;;;;;;;;32.00;28.00;;;;;24.21;52.94;100377.30;110227;1265;20629;-72
2023/07/16 00:09:29;;;;;;;;;30.50;29.00;;;;;24.20;53.05;100375.41;110239;1265;18986;-71
2023/07/16 00:11:55;;;;;;;;;30.00;30.00;;;;;24.16;53.11;100380.33;110235;1259;20526;-72
2023/07/16 00:14:21;;;;;;;;;28.50;28.00;;;;;24.20;53.25;100380.88;110252;1265;20669;-73
2023/07/16 00:16:47;;;;;;;;;30.00;29.00;;;;;24.23;53.29;100380.70;110249;1265;20014;-73
2023/07/16 00:19:13;;;;;;;;;33.00;31.00;;;;;24.23;53.19;100380.16;110246;1265;20077;-73
2023/07/16 00:21:39;;;;;;;;;28.50;28.00;;;;;24.24;53.27;100377.39;110257;1265;20648;-73
2023/07/16 00:24:06;;;;;;;;;28.00;28.00;;;;;24.20;53.34;100367.98;110244;1265;18659;-72
2023/07/16 00:26:32;;;;;;;;;32.50;31.00;;;;;24.14;53.58;100368.23;110270;1265;22293;-72
2023/07/16 00:28:58;;;;;;;;;35.00;31.00;;;;;24.12;53.61;100359.26;110262;1264;19478;-75
2023/07/16 00:31:24;;;;;;;;;32.50;28.50;;;;;24.12;53.67;100360.64;110274;1265;18625;-72
2023/07/16 00:33:50;;;;;;;;;26.50;25.00;;;;;24.15;53.65;100357.86;110238;1250;20140;-72
2023/07/16 00:36:16;;;;;;;;;31.50;29.00;;;;;24.12;53.64;100352.14;110107;1266;19352;-73
2023/07/16 00:38:42;;;;;;;;;29.00;28.00;;;;;24.12;53.68;100347.63;110127;1265;18627;-73
2023/07/16 00:41:08;;;;;;;;;28.00;27.00;;;;;24.16;53.65;100341.73;110128;1265;21881;-73
2023/07/16 00:43:34;;;;;;;;;30.50;28.50;;;;;24.10;53.83;100338.36;110163;1265;19497;-73
2023/07/16 00:46:00;;;;;;;;;29.50;29.00;;;;;24.04;54.17;100333.80;110242;1250;20103;-73
2023/07/16 00:48:26;;;;;;;;;28.50;27.50;;;;;24.06;54.17;100328.87;110253;1265;18789;-73
2023/07/16 00:50:52;;;;;;;;;33.00;31.00;;;;;24.04;54.28;100333.08;110264;1250;20799;-72
2023/07/16 00:53:18;;;;;;;;;32.00;29.00;;;;;24.07;54.32;100329.84;110245;1250;20505;-73
2023/07/16 00:55:44;;;;;;;;;32.00;31.00;;;;;24.14;54.16;100325.72;110247;1265;20053;-72
2023/07/16 00:58:10;;;;;;;;;27.00;27.00;;;;;24.14;54.06;100325.90;110196;1250;20471;-72
2023/07/16 01:00:37;;;;;;;;;27.00;27.00;;;;;24.14;54.06;100322.23;110228;1265;22688;-71
2023/07/16 01:03:03;;;;;;;;;30.00;29.00;;;;;24.17;54.16;100321.84;110205;1250;21278;-71
2023/07/16 01:05:29;;;;;;;;;28.00;28.00;;;;;24.10;54.14;100321.21;110202;1251;20715;-71
2023/07/16 01:07:55;;;;;;;;;25.00;25.00;;;;;24.17;54.28;100318.52;110254;1250;20069;-72
2023/07/16 01:10:22;;;;;;;;;29.00;28.33;;;;;24.26;53.92;100315.55;110255;1250;22899;-72
2023/07/16 01:12:48;;;;;;;;;33.00;32.00;;;;;24.20;54.12;100311.19;110228;1250;20998;-71
2023/07/16 01:15:14;;;;;;;;;31.00;29.00;;;;;24.09;54.49;100313.41;110271;1265;19979;-73
2023/07/16 01:17:40;;;;;;;;;25.00;24.00;;;;;24.12;54.66;100318.27;110279;1265;18784;-73
2023/07/16 01:20:06;;;;;;;;;29.00;27.00;;;;;24.19;54.33;100320.76;110266;1249;21938;-73
2023/07/16 01:22:32;;;;;;;;;31.00;26.00;;;;;24.20;54.55;100320.13;110280;1251;20102;-73
2023/07/16 01:24:58;;;;;;;;;28.00;27.00;;;;;24.22;54.30;100324.39;110186;1251;20126;-72
2023/07/16 01:27:25;;;;;;;;;26.50;24.00;;;;;24.23;54.38;100325.17;110243;1257;20902;-72
2023/07/16 01:32:54;;;;;;;;;28.50;26.00;;;;;24.25;54.23;100317.98;110282;1250;19642;-72
2023/07/16 01:35:20;;;;;;;;;28.00;27.50;;;;;24.20;54.51;100312.23;110233;1250;20806;-72
2023/07/16 01:37:46;;;;;;;;;31.00;29.50;;;;;24.15;54.61;100308.91;110239;1250;20084;-72
2023/07/16 01:40:12;;;;;;;;;32.50;30.50;;;;;24.14;54.64;100305.64;110264;1250;19056;-73
2023/07/16 01:42:38;;;;;;;;;30.67;28.00;;;;;24.15;54.75;100303.54;110270;1265;19529;-74
2023/07/16 01:45:04;;;;;;;;;32.00;28.50;;;;;24.17;54.70;100301.80;110262;1259;21224;-73
2023/07/16 01:47:30;;;;;;;;;33.00;29.00;;;;;24.20;54.71;100304.37;110211;1265;19019;-73
2023/07/16 01:49:56;;;;;;;;;33.00;29.00;;;;;24.22;54.64;100304.66;110196;1257;19374;-73
2023/07/16 01:52:22;;;;;;;;;32.00;28.50;;;;;24.22;54.62;100308.21;110239;1265;18692;-73
2023/07/16 01:54:48;;;;;;;;;29.00;29.00;;;;;24.24;54.74;100310.98;110279;1266;22716;-73
2023/07/16 01:57:14;;;;;;;;;29.00;26.00;;;;;24.18;54.72;100314.86;110244;1250;22105;-72
2023/07/16 01:59:41;;;;;;;;;27.00;25.50;;;;;24.18;54.78;100317.17;110205;1265;19948;-72
2023/07/16 02:02:07;;;;;;;;;28.00;28.00;;;;;24.22;54.55;100315.29;110222;1265;18771;-72
2023/07/16 02:04:33;;;;;;;;;31.00;29.00;;;;;24.18;54.87;100314.02;110271;1265;19344;-73
2023/07/16 02:06:59;;;;;;;;;32.00;30.00;;;;;24.05;55.08;100309.30;110262;1250;20193;-72
2023/07/16 02:09:25;;;;;;;;;29.00;28.00;;;;;24.06;55.20;100304.60;110241;1249;20168;-72
2023/07/16 02:11:51;;;;;;;;;29.00;28.00;;;;;24.04;55.28;100304.65;110254;1265;20638;-73
2023/07/16 02:14:17;;;;;;;;;34.00;32.50;;;;;23.99;55.46;100306.96;110273;1250;20227;-72
2023/07/16 02:16:43;;;;;;;;;27.00;27.00;;;;;23.99;55.45;100306.41;110276;1250;21588;-71
2023/07/16 02:19:09;;;;;;;;;30.33;29.00;;;;;24.01;55.42;100305.58;110239;1249;20688;-73
2023/07/16 02:21:35;;;;;;;;;30.00;29.00;;;;;24.05;55.22;100301.02;110272;1266;18813;-72
2023/07/16 02:24:01;;;;;;;;;29.00;28.00;;;;;24.04;55.32;100295.55;110230;1265;20119;-72
2023/07/16 02:26:27;;;;;;;;;28.00;28.00;;;;;23.97;55.42;100292.17;110274;1265;19807;-73
2023/07/16 02:28:53;;;;;;;;;33.00;29.00;;;;;23.92;55.54;100289.30;110263;1265;18856;-71
2023/07/16 02:31:19;;;;;;;;;33.00;29.00;;;;;23.91;55.75;100293.77;110259;1261;20315;-73
2023/07/16 02:33:45;;;;;;;;;28.00;26.50;;;;;23.91;55.64;100289.30;110284;1265;19502;-72
2023/07/16 02:36:11;;;;;;;;;28.00;28.00;;;;;23.98;55.50;100289.44;110214;1265;18710;-72
2023/07/16 02:38:38;;;;;;;;;27.50;26.50;;;;;24.08;55.27;100291.34;110248;1258;20188;-73
2023/07/16 02:41:04;;;;;;;;;30.50;28.00;;;;;24.07;55.36;100284.19;110259;1251;22282;-73
2023/07/16 02:43:30;;;;;;;;;28.50;27.00;;;;;24.04;55.48;100284.52;110239;1265;22595;-73
2023/07/16 02:45:56;;;;;;;;;29.00;28.00;;;;;24.00;55.59;100286.48;110224;1265;18673;-71
2023/07/16 02:48:22;;;;;;;;;29.00;25.00;;;;;24.01;55.75;100284.48;110222;1250;20499;-73
2023/07/16 02:50:48;;;;;;;;;26.00;26.00;;;;;24.03;55.85;100285.70;110247;1250;21017;-71
2023/07/16 02:53:14;;;;;;;;;28.00;26.00;;;;;24.03;55.80;100290.38;110256;1257;21902;-72
2023/07/16 02:55:40;;;;;;;;;29.00;29.00;;;;;24.05;55.87;100295.17;110237;1250;20905;-73
2023/07/16 02:58:06;;;;;;;;;29.00;29.00;;;;;24.00;55.93;100300.05;110213;1265;18857;-71
2023/07/16 03:00:32;;;;;;;;;29.00;28.00;;;;;24.02;56.17;100296.02;110140;1250;18779;-72
2023/07/16 03:02:58;;;;;;;;;29.00;28.00;;;;;24.01;56.12;100301.75;110155;1250;20716;-70
2023/07/16 03:05:24;;;;;;;;;29.00;29.00;;;;;23.97;56.15;100301.45;110199;1250;20150;-72
2023/07/16 03:07:50;;;;;;;;;33.00;30.00;;;;;23.94;56.33;100301.66;110251;1265;18918;-72
2023/07/16 03:10:16;;;;;;;;;25.00;24.00;;;;;24.02;56.40;100296.56;110278;1265;19749;-72
2023/07/16 03:12:42;;;;;;;;;24.50;24.50;;;;;24.03;56.16;100297.61;110174;1250;20115;-69
2023/07/16 03:15:08;;;;;;;;;33.00;30.00;;;;;23.97;56.32;100289.73;110175;1250;20140;-70
2023/07/16 03:17:34;;;;;;;;;29.00;28.00;;;;;23.98;56.39;100294.00;110231;1265;20764;-71
2023/07/16 03:20:00;;;;;;;;;28.00;26.00;;;;;23.95;56.58;100296.05;110145;1257;19929;-72
2023/07/16 03:22:27;;;;;;;;;30.00;28.00;;;;;23.91;56.65;100309.56;110126;1265;20361;-72
2023/07/16 03:24:53;;;;;;;;;32.00;29.00;;;;;23.86;56.84;100308.12;110214;1250;20730;-71
2023/07/16 03:27:19;;;;;;;;;29.00;28.00;;;;;23.88;57.12;100302.27;110229;1250;22198;-72
2023/07/16 03:29:45;;;;;;;;;30.00;28.00;;;;;23.84;57.19;100308.33;110230;1264;21940;-72
2023/07/16 03:32:11;;;;;;;;;36.00;29.00;;;;;23.82;57.25;100308.20;110247;1250;20748;-72
2023/07/16 03:34:37;;;;;;;;;29.00;29.00;;;;;23.76;57.65;100312.02;110241;1250;19972;-73
2023/07/16 03:37:03;;;;;;;;;28.00;28.00;;;;;23.81;57.59;100308.53;110214;1250;20170;-71
2023/07/16 03:39:29;;;;;;;;;28.00;25.00;;;;;23.83;57.40;100310.23;110229;1250;19537;-72
2023/07/16 03:41:55;;;;;;;;;31.00;28.00;;;;;23.83;57.48;100305.20;110249;1249;22191;-72
2023/07/16 03:44:21;;;;;;;;;32.00;27.50;;;;;23.86;57.38;100302.70;110248;1250;22688;-73
2023/07/16 03:46:47;;;;;;;;;29.00;27.67;;;;;23.81;57.56;100310.05;110260;1250;19362;-72
2023/07/16 03:49:13;;;;;;;;;24.00;23.00;;;;;23.80;57.81;100312.20;110259;1250;18863;-72
2023/07/16 03:51:39;;;;;;;;;28.00;25.00;;;;;23.84;57.76;100315.02;110145;1265;18814;-72
2023/07/16 03:54:05;;;;;;;;;31.00;28.00;;;;;23.83;57.87;100314.05;110146;1250;20786;-72
2023/07/16 03:56:31;;;;;;;;;25.00;24.00;;;;;23.82;57.81;100315.52;110180;1250;22418;-73
2023/07/16 03:58:57;;;;;;;;;22.00;22.00;;;;;23.83;57.95;100316.45;110238;1249;21529;-72
2023/07/16 04:01:23;;;;;;;;;23.50;23.00;;;;;23.86;58.02;100314.23;110277;1265;20791;-72
2023/07/16 04:03:49;;;;;;;;;28.00;27.00;;;;;23.91;57.93;100314.41;110245;1265;19899;-72
2023/07/16 04:06:15;;;;;;;;;25.50;24.50;;;;;23.93;57.81;100315.55;110243;1250;18854;-72
2023/07/16 04:08:41;;;;;;;;;25.00;25.00;;;;;23.91;57.99;100317.73;110269;1257;20763;-72
2023/07/16 04:11:07;;;;;;;;;28.00;26.00;;;;;23.95;58.02;100309.89;110256;1265;18629;-72
2023/07/16 04:13:33;;;;;;;;;26.67;25.00;;;;;23.97;58.08;100307.93;110256;1264;18785;-71
2023/07/16 04:15:59;;;;;;;;;27.50;26.00;;;;;23.89;58.32;100307.20;110248;1265;19418;-71
2023/07/16 04:18:25;;;;;;;;;25.00;24.00;;;;;23.92;58.49;100309.68;110251;1266;19942;-72
2023/07/16 04:20:51;;;;;;;;;24.50;23.50;;;;;23.87;58.53;100305.89;110238;1250;20270;-73
2023/07/16 04:23:18;;;;;;;;;26.00;25.00;;;;;23.93;58.49;100302.52;110255;1265;19448;-73
2023/07/16 04:25:44;;;;;;;;;27.00;25.00;;;;;23.93;58.63;100298.91;110247;1250;20256;-73
2023/07/16 04:28:10;;;;;;;;;25.00;24.00;;;;;23.88;59.13;100293.17;110236;1265;22469;-73
2023/07/16 04:30:37;;;;;;;;;25.00;25.00;;;;;23.90;59.09;100298.10;110224;1257;22236;-72
2023/07/16 04:33:03;;;;;;;;;25.00;24.00;;;;;23.96;58.91;100299.48;110269;1265;18639;-72
2023/07/16 04:35:29;;;;;;;;;25.00;24.00;;;;;23.97;58.91;100301.39;110246;1265;18742;-71
2023/07/16 04:37:55;;;;;;;;;25.00;25.00;;;;;23.98;58.99;100299.38;110104;1251;19309;-72
2023/07/16 04:40:21;;;;;;;;;32.00;29.00;;;;;23.99;59.24;100293.15;109996;1266;18742;-70
2023/07/16 04:42:47;;;;;;;;;30.50;27.50;;;;;24.00;59.35;100295.94;110096;1251;18743;-70
2023/07/16 04:45:13;;;;;;;;;29.33;25.00;;;;;24.04;59.34;100293.58;110094;1251;21048;-72
2023/07/16 04:47:39;;;;;;;;;25.00;24.00;;;;;24.06;59.39;100293.45;110068;1266;22192;-72
2023/07/16 04:50:05;;;;;;;;;26.50;24.50;;;;;24.12;59.34;100297.92;110095;1251;21374;-72
2023/07/16 04:52:31;;;;;;;;;25.00;25.00;;;;;24.15;59.23;100298.42;110085;1251;19625;-72
2023/07/16 04:54:57;;;;;;;;;26.00;24.67;;;;;24.17;59.32;100303.77;110061;1266;18570;-72
2023/07/16 04:57:23;;;;;;;;;25.50;24.00;;;;;24.18;59.68;100306.04;110067;1251;22223;-72
2023/07/16 04:59:49;;;;;;;;;26.00;24.00;;;;;24.20;59.62;100298.18;110091;1251;20908;-73
2023/07/16 05:02:17;;;;;;;;;23.50;23.50;;;;;24.22;59.78;100304.92;110086;1266;20294;-73
2023/07/16 05:04:44;;;;;;;;;25.00;25.00;;;;;24.21;59.77;100307.59;110012;1266;18806;-73
2023/07/16 05:07:10;;;;;;;;;;;;;;;24.22;59.94;100312.74;109965;1266;19490;-73
2023/07/16 05:09:36;;;;;;;;;27.50;27.50;;;;;24.22;59.94;100317.48;110056;1251;20123;-73
2023/07/16 05:12:02;;;;;;;;;29.00;26.00;;;;;24.23;60.07;100341.27;110083;1251;22478;-73
2023/07/16 05:14:28;;;;;;;;;27.00;25.50;;;;;24.29;60.17;100377.89;110093;1259;20803;-73
2023/07/16 05:16:54;;;;;;;;;25.50;25.00;;;;;24.35;60.05;100381.67;110080;1266;18652;-73
2023/07/16 05:19:20;;;;;;;;;29.00;26.00;;;;;24.39;60.07;100370.40;110087;1266;18861;-73
2023/07/16 05:21:46;;;;;;;;;32.00;28.00;;;;;24.42;60.22;100383.66;110094;1266;20739;-71
2023/07/16 05:24:12;;;;;;;;;33.00;30.50;;;;;24.45;60.36;100390.37;110058;1259;20130;-72
2023/07/16 05:26:38;;;;;;;;;27.00;26.00;;;;;24.47;60.90;100385.52;110065;1266;21604;-71
2023/07/16 05:29:04;;;;;;;;;26.00;25.00;;;;;24.50;60.97;100385.57;110098;1266;20945;-71
2023/07/16 05:31:30;;;;;;;;;28.00;26.00;;;;;24.54;61.50;100389.45;110087;1259;20332;-72
2023/07/16 05:33:56;;;;;;;;;29.00;27.00;;;;;24.62;61.61;100394.77;110101;1251;20108;-72
2023/07/16 05:36:22;;;;;;;;;23.00;23.00;;;;;24.66;61.54;100391.73;110018;1266;19564;-72
2023/07/16 05:38:48;;;;;;;;;26.67;25.67;;;;;24.69;61.71;100395.65;109983;1266;20792;-72
2023/07/16 05:41:15;;;;;;;;;25.50;25.00;;;;;24.73;61.98;100390.63;110083;1266;18958;-72
2023/07/16 05:43:41;;;;;;;;;22.00;22.00;;;;;24.78;62.30;100391.98;110097;1259;19410;-74
2023/07/16 05:46:07;;;;;;;;;23.00;22.50;;;;;24.81;62.19;100393.41;110035;1251;20048;-72
2023/07/16 05:48:33;;;;;;;;;21.00;19.00;;;;;24.83;62.05;100391.63;110095;1259;18798;-72
2023/07/16 05:50:59;;;;;;;;;22.00;21.00;;;;;24.83;62.13;100383.11;110115;1251;20736;-72
2023/07/16 05:53:25;;;;;;;;;18.00;17.00;;;;;24.87;62.09;100384.25;110106;1266;18641;-73
2023/07/16 05:55:51;;;;;;;;;16.00;15.50;;;;;24.91;62.10;100382.77;110123;1266;18716;-72
2023/07/16 05:58:17;;;;;;;;;18.00;18.00;;;;;24.92;62.04;100378.60;110050;1251;20820;-73
2023/07/16 06:00:44;;;;;;;;;17.00;17.00;;;;;24.92;61.88;100375.27;110006;1251;20073;-72
2023/07/16 06:03:10;;;;;;;;;17.00;17.00;;;;;24.95;61.74;100369.77;110129;1266;18747;-72
2023/07/16 06:05:36;;;;;;;;;14.50;14.00;;;;;25.01;61.74;100371.80;110112;1266;20833;-72
2023/07/16 06:08:03;;;;;;;;;16.00;16.00;;;;;25.02;61.78;100367.80;110140;1251;22664;-71
2023/07/16 06:10:29;;;;;;;;;13.00;11.00;;;;;25.03;61.76;100371.75;110135;1251;18715;-71
2023/07/16 06:12:55;;;;;;;;;13.00;13.00;;;;;25.08;61.59;100371.58;110100;1251;22191;-71
2023/07/16 06:15:21;;;;;;;;;13.00;13.00;;;;;25.09;61.52;100376.87;110081;1266;19959;-71
2023/07/16 06:17:47;;;;;;;;;11.33;10.00;;;;;25.11;61.61;100376.31;110104;1259;18743;-71
2023/07/16 06:20:13;;;;;;;;;10.67;10.67;;;;;25.17;61.67;100383.13;110092;1251;20824;-73
2023/07/16 06:22:39;;;;;;;;;9.00;9.00;;;;;25.13;61.46;100389.52;110076;1251;20201;-72
2023/07/16 06:25:05;;;;;;;;;12.00;10.00;;;;;25.14;61.65;100387.52;110024;1259;91005;-73
2023/07/16 06:27:31;;;;;;;;;8.67;8.67;;;;;25.15;61.62;100384.20;110097;1259;19362;-72
2023/07/16 06:29:57;;;;;;;;;9.00;8.00;;;;;25.16;61.68;100382.93;110155;1251;19935;-72
2023/07/16 06:32:23;;;;;;;;;9.00;9.00;;;;;25.19;61.62;100389.19;110273;1250;21616;-73
2023/07/16 06:34:49;;;;;;;;;9.00;9.00;;;;;25.19;61.47;100393.98;110211;1257;22059;-71
2023/07/16 06:37:15;;;;;;;;;9.00;9.00;;;;;25.21;61.60;100390.25;110137;1257;19475;-74
2023/07/16 06:39:41;;;;;;;;;9.33;9.00;;;;;25.23;61.55;100394.84;110142;1250;20150;-71
2023/07/16 06:42:07;;;;;;;;;8.00;6.00;;;;;25.22;61.45;100396.67;110184;1265;19335;-74
2023/07/16 06:44:33;;;;;;;;;8.00;8.00;;;;;25.21;61.36;100401.41;110130;1265;18438;-72
2023/07/16 06:47:00;;;;;;;;;8.00;7.00;;;;;25.20;61.33;100399.29;110266;1250;20044;-73
2023/07/16 06:49:26;;;;;;;;;8.00;6.00;;;;;25.21;61.40;100395.91;110250;1257;19309;-74
2023/07/16 06:51:52;;;;;;;;;5.50;5.50;;;;;25.22;61.36;100401.56;110250;1250;19632;-73
2023/07/16 06:54:18;;;;;;;;;7.00;6.00;;;;;25.23;61.17;100406.61;110270;1265;21258;-70
2023/07/16 06:56:44;;;;;;;;;8.00;8.00;;;;;25.23;61.11;100411.52;110234;1265;22001;-69
2023/07/16 06:59:10;;;;;;;;;5.50;5.00;;;;;25.24;60.94;100410.63;110238;1265;18316;-69
2023/07/16 07:01:36;;;;;;;;;7.00;6.00;;;;;25.26;60.82;100409.64;110281;1265;18613;-75
2023/07/16 07:04:02;;;;;;;;;8.00;8.00;;;;;25.26;60.69;100411.80;110272;1264;19351;-72
2023/07/16 07:06:28;;;;;;;;;8.00;6.00;;;;;25.26;60.72;100413.84;110235;1250;19582;-71
2023/07/16 07:08:54;;;;;;;;;6.00;6.00;;;;;25.26;60.63;100419.69;110246;1265;18638;-70
2023/07/16 07:11:20;;;;;;;;;5.00;5.00;;;;;25.25;60.80;100420.55;110264;1249;20661;-71
2023/07/16 07:13:46;;;;;;;;;5.67;5.67;;;;;25.30;60.43;100420.56;110247;1250;18362;-71
2023/07/16 07:16:12;;;;;;;;;8.00;8.00;;;;;25.31;60.44;100423.94;110233;1250;20150;-71
2023/07/16 07:18:38;;;;;;;;;5.67;5.67;;;;;25.30;60.40;100437.73;110128;1257;22580;-71
2023/07/16 07:21:04;;;;;;;;;6.00;6.00;;;;;25.30;60.47;100442.77;110164;1265;18348;-71
2023/07/16 07:23:30;;;;;;;;;6.00;6.00;;;;;25.31;60.30;100448.41;110235;1265;21396;-71
2023/07/16 07:25:56;;;;;;;;;7.00;7.00;;;;;25.32;60.33;100450.88;110227;1250;20775;-71
2023/07/16 07:28:22;;;;;;;;;6.00;6.00;;;;;25.32;60.14;100448.71;110180;1250;21453;-71
2023/07/16 07:30:48;;;;;;;;;5.00;5.00;;;;;25.32;60.07;100447.53;110115;1259;20559;-71
2023/07/16 07:33:14;;;;;;;;;6.00;5.00;;;;;25.34;59.92;100445.71;110218;1264;19338;-70
2023/07/16 07:35:40;;;;;;;;;6.00;6.00;;;;;25.35;59.78;100443.39;110296;1251;20011;-71
2023/07/16 07:38:06;;;;;;;;;5.00;5.00;;;;;25.35;59.59;100447.57;110260;1250;20129;-71
2023/07/16 07:40:32;;;;;;;;;6.00;6.00;;;;;25.34;59.56;100446.23;110260;1264;19590;-71
2023/07/16 07:42:58;;;;;;;;;5.50;5.50;;;;;25.34;59.65;100450.27;110275;1250;19740;-71
2023/07/16 07:45:24;;;;;;;;;5.00;5.00;;;;;25.35;59.39;100457.66;110241;1265;19735;-71
2023/07/16 07:47:50;;;;;;;;;5.00;5.00;;;;;25.32;59.32;100465.09;110236;1265;19371;-71
2023/07/16 07:50:17;;;;;;;;;6.00;6.00;;;;;25.34;59.42;100469.48;110242;1264;18431;-71
2023/07/16 07:52:43;;;;;;;;;6.00;6.00;;;;;25.36;59.08;100465.20;110216;1265;19709;-71
2023/07/16 07:55:09;;;;;;;;;5.00;5.00;;;;;25.36;59.07;100471.63;110215;1264;21932;-71
2023/07/16 07:57:36;;;;;;;;;6.00;6.00;;;;;25.34;59.14;100472.44;110242;1265;18438;-71
2023/07/16 08:00:02;;;;;;;;;5.00;5.00;;;;;25.33;59.04;100465.73;110240;1265;19583;-71
2023/07/16 08:02:29;;;;;;;;;6.00;6.00;;;;;25.35;58.90;100466.23;110227;1265;19456;-72
2023/07/16 08:04:55;;;;;;;;;3.00;3.00;;;;;25.35;58.83;100471.50;110199;1250;22708;-72
2023/07/16 08:07:21;;;;;;;;;5.00;5.00;;;;;25.36;58.63;100472.89;110267;1265;19983;-73
2023/07/16 08:09:47;;;;;;;;;5.00;5.00;;;;;25.36;58.69;100479.09;110199;1265;22770;-73
2023/07/16 08:12:13;;;;;;;;;5.00;5.00;;;;;25.36;58.71;100478.70;110142;1250;18537;-73
2023/07/16 08:14:39;;;;;;;;;6.00;5.00;;;;;25.34;58.54;100480.03;110135;1250;20122;-73
2023/07/16 08:17:05;;;;;;;;;5.00;5.00;;;;;25.36;58.45;100482.00;110150;1265;19314;-72
2023/07/16 08:19:31;;;;;;;;;5.00;5.00;;;;;25.35;58.51;100483.78;110214;1257;18322;-72
2023/07/16 08:21:57;;;;;;;;;5.00;5.00;;;;;25.34;58.58;100481.77;110244;1265;18677;-73
2023/07/16 08:24:23;;;;;;;;;5.00;5.00;;;;;25.31;58.51;100485.73;110253;1260;19391;-73
2023/07/16 08:26:49;;;;;;;;;5.00;5.00;;;;;25.30;58.55;100488.17;110235;1257;19681;-73
2023/07/16 08:29:15;;;;;;;;;5.00;5.00;;;;;25.31;58.44;100492.81;110224;1265;18667;-73
2023/07/16 08:31:41;;;;;;;;;6.00;5.00;;;;;25.33;58.32;100496.88;110181;1259;20974;-72
2023/07/16 08:34:07;;;;;;;;;5.00;3.00;;;;;25.33;58.23;100493.58;110171;1257;20160;-72
2023/07/16 08:36:34;;;;;;;;;5.00;5.00;;;;;25.35;58.25;100498.64;110276;1257;18639;-73
2023/07/16 08:39:00;;;;;;;;;3.00;3.00;;;;;25.35;58.18;100499.82;110234;1265;19338;-71
2023/07/16 08:41:26;;;;;;;;;5.00;3.00;;;;;25.34;58.02;100508.09;110162;1265;18443;-71
2023/07/16 08:43:52;;;;;;;;;5.00;4.33;;;;;25.36;58.27;100510.75;110216;1265;19286;-72
2023/07/16 08:46:18;;;;;;;;;3.00;3.00;;;;;25.36;58.13;100511.04;110226;1265;19327;-72
2023/07/16 08:48:44;;;;;;;;;3.00;3.00;;;;;25.35;58.05;100508.42;110260;1265;19934;-71
2023/07/16 08:51:10;;;;;;;;;4.00;4.00;;;;;25.35;57.99;100509.40;110271;1251;19910;-72
2023/07/16 08:53:36;;;;;;;;;;;;;;;25.35;58.08;100516.78;110250;1265;19355;-71
2023/07/16 08:56:05;;;;;;;;;3.00;3.00;;;;;25.35;58.04;100519.99;110272;1250;19975;-72
2023/07/16 08:58:31;;;;;;;;;3.00;3.00;;;;;25.35;57.94;100523.63;110261;1265;18793;-72
2023/07/16 09:00:57;;;;;;;;;2.00;2.00;;;;;25.35;57.87;100525.06;110265;1265;19379;-72
2023/07/16 09:03:23;;;;;;;;;3.00;3.00;;;;;25.35;57.97;100527.45;110266;1265;19653;-72
2023/07/16 09:05:49;;;;;;;;;2.00;2.00;;;;;25.35;58.00;100524.60;110233;1266;22216;-72
2023/07/16 09:08:15;;;;;;;;;3.67;3.00;;;;;25.35;57.83;100531.90;110224;1250;22025;-72
2023/07/16 09:10:41;;;;;;;;;2.00;2.00;;;;;25.35;57.71;100532.23;110273;1250;18384;-72
2023/07/16 09:13:07;;;;;;;;;2.00;2.00;;;;;25.35;57.74;100538.95;110221;1265;18729;-72
2023/07/16 09:15:34;;;;;;;;;5.00;3.00;;;;;25.35;57.77;100541.57;110258;1249;20702;-74
2023/07/16 09:18:00;;;;;;;;;3.00;2.00;;;;;25.36;57.85;100539.66;110252;1257;18390;-76
2023/07/16 09:20:27;;;;;;;;;3.00;3.00;;;;;25.37;57.65;100539.45;110259;1257;18450;-74
2023/07/16 09:22:53;;;;;;;;;3.00;3.00;;;;;25.40;57.82;100540.42;110253;1256;22864;-74
2023/07/16 09:25:19;;;;;;;;;2.33;2.33;;;;;25.45;58.42;100548.07;110319;1248;21204;-73
2023/07/16 09:27:45;;;;;;;;;5.00;5.00;;;;;25.49;59.20;100549.70;110305;1251;19997;-73
2023/07/16 09:30:11;;;;;;;;;3.00;3.00;;;;;25.54;60.05;100548.89;110269;1263;21119;-74
2023/07/16 09:32:39;;;;;;;;;3.00;3.00;;;;;25.56;60.96;100553.73;110281;1257;19719;-73
2023/07/16 09:35:05;;;;;;;;;3.00;3.00;;;;;25.57;61.58;100549.05;110275;1248;20093;-73
2023/07/16 09:37:31;;;;;;;;;3.00;3.00;;;;;25.62;62.77;100563.53;110330;1248;20557;-73
2023/07/16 09:39:57;;;;;;;;;6.00;5.00;;;;;25.64;63.86;100573.58;110267;1257;18427;-73
2023/07/16 09:42:23;;;;;;;;;6.00;6.00;;;;;25.67;64.64;100572.26;110248;1248;20103;-73
2023/07/16 09:44:49;;;;;;;;;5.00;5.00;;;;;25.69;64.94;100572.35;110258;1250;21380;-73
2023/07/16 09:47:15;;;;;;;;;5.00;5.00;;;;;25.73;65.59;100582.36;110257;1263;21719;-72
2023/07/16 09:49:43;;;;;;;;;6.33;6.00;;;;;25.75;65.78;100589.77;110248;1248;22178;-72
2023/07/16 09:52:10;;;;;;;;;5.00;5.00;;;;;25.73;65.94;100590.17;110251;1263;20870;-72
2023/07/16 09:54:36;;;;;;;;;4.33;4.33;;;;;25.73;66.07;100592.23;110265;1264;18390;-73
2023/07/16 09:57:02;;;;;;;;;8.00;6.00;;;;;25.72;65.78;100591.60;110227;1251;20030;-72
2023/07/16 09:59:28;;;;;;;;;7.00;5.00;;;;;25.70;65.60;100589.20;110243;1257;21637;-72
2023/07/16 10:01:54;;;;;;;;;6.00;5.00;;;;;25.67;65.61;100585.05;110244;1264;19843;-71
2023/07/16 10:04:21;;;;;;;;;4.00;3.00;;;;;25.65;65.37;100589.27;110286;1250;22709;-71
2023/07/16 10:06:47;;;;;;;;;4.00;4.00;;;;;25.65;65.26;100590.04;110285;1264;23488;-71
2023/07/16 10:09:13;;;;;;;;;3.00;3.00;;;;;25.64;65.16;100588.86;110238;1248;19662;-73
2023/07/16 10:11:39;;;;;;;;;3.00;3.00;;;;;25.62;64.86;100593.90;110265;1256;18826;-73
2023/07/16 10:14:05;;;;;;;;;3.00;3.00;;;;;25.63;64.60;100598.54;110300;1248;20908;-73
2023/07/16 10:16:32;;;;;;;;;5.00;3.00;;;;;25.64;64.42;100609.09;110277;1248;19637;-71
2023/07/16 10:19:00;;;;;;;;;3.00;3.00;;;;;25.64;64.13;100609.77;110275;1248;21344;-72
2023/07/16 10:21:26;;;;;;;;;65.00;46.00;;;;;25.65;64.08;100616.39;110266;1264;19522;-73
2023/07/16 10:23:52;;;;;;;;;59.00;44.00;;;;;25.66;64.18;100614.44;110286;1264;18375;-72
2023/07/16 10:26:18;;;;;;;;;59.00;45.00;;;;;25.65;64.10;100616.39;110301;1248;20259;-73
2023/07/16 10:28:45;;;;;;;;;42.50;37.00;;;;;25.64;64.07;100614.48;110331;1264;19545;-72
2023/07/16 10:31:11;;;;;;;;;43.50;37.00;;;;;25.64;64.05;100614.88;110256;1248;21315;-72
2023/07/16 10:33:38;;;;;;;;;41.00;38.50;;;;;25.62;63.92;100615.64;110239;1248;21314;-72
2023/07/16 10:36:04;;;;;;;;;47.00;33.00;;;;;25.63;63.98;100613.77;110193;1248;21333;-71
2023/07/16 10:38:32;;;;;;;;;31.50;27.50;;;;;25.66;63.88;100611.35;110292;1264;18600;-72
2023/07/16 10:40:58;;;;;;;;;28.00;23.00;;;;;25.68;63.65;100607.02;110245;1264;18918;-73
2023/07/16 10:43:24;;;;;;;;;39.00;28.00;;;;;25.71;63.46;100600.50;110264;1251;20934;-72
2023/07/16 10:45:50;;;;;;;;;27.50;19.50;;;;;25.71;63.25;100600.50;110242;1264;18570;-73
2023/07/16 10:48:16;;;;;;;;;23.00;20.00;;;;;25.71;63.11;100606.89;110045;1264;22326;-74
2023/07/16 10:50:43;;;;;;;;;18.00;14.00;;;;;25.76;63.04;100617.63;110252;1258;19242;-74
2023/07/16 10:53:09;;;;;;;;;22.00;19.00;;;;;25.80;62.98;100621.32;110142;1251;19895;-75
2023/07/16 10:55:37;;;;;;;;;16.50;14.00;;;;;25.76;62.80;100605.78;110323;1250;19525;-75
2023/07/16 10:58:03;;;;;;;;;15.67;15.33;;;;;25.73;62.63;100599.33;110244;1264;22318;-75
2023/07/16 11:00:30;;;;;;;;;19.00;16.00;;;;;25.71;62.62;100605.29;110280;1263;18580;-75
2023/07/16 11:02:56;;;;;;;;;14.00;13.00;;;;;25.70;62.52;100604.77;110222;1248;19167;-76
2023/07/16 11:05:22;;;;;;;;;18.50;15.00;;;;;25.68;62.47;100612.38;110246;1263;19356;-76